createdAt,value
2018-07-24T00:01:09.698Z,2.77
2018-07-24T00:03:38.928Z,3.20
2018-07-24T00:06:08.225Z,2.37
2018-07-24T00:08:37.505Z,2.93
2018-07-24T00:11:07.377Z,3.50
2018-07-24T00:13:36.698Z,3.23
2018-07-24T00:16:06.275Z,2.03
2018-07-24T00:18:35.547Z,3.07
2018-07-24T00:21:04.821Z,2.33
2018-07-24T00:23:34.131Z,3.10
2018-07-24T00:26:03.398Z,2.97
2018-07-24T00:28:32.881Z,2.77
2018-07-24T00:31:02.213Z,5.27
2018-07-24T00:33:31.505Z,2.37
2018-07-24T00:36:00.797Z,3.10
2018-07-24T00:38:30.049Z,2.93
2018-07-24T00:40:59.331Z,2.10
2018-07-24T00:43:28.665Z,2.60
2018-07-24T00:45:57.979Z,3.57
2018-07-24T00:48:27.358Z,2.83
2018-07-24T00:50:56.764Z,3.37
2018-07-24T00:53:26.157Z,2.53
2018-07-24T00:55:55.564Z,3.07
2018-07-24T00:58:24.879Z,2.03
2018-07-24T01:00:54.203Z,2.70
2018-07-24T01:03:23.583Z,2.93
2018-07-24T01:05:52.905Z,2.60
2018-07-24T01:08:22.175Z,2.80
2018-07-24T01:10:51.478Z,2.27
2018-07-24T01:13:20.767Z,2.90
2018-07-24T01:15:50.076Z,2.60
2018-07-24T01:18:19.377Z,2.17
2018-07-24T01:20:48.692Z,2.40
2018-07-24T01:23:17.982Z,2.87
2018-07-24T01:25:47.292Z,2.67
2018-07-24T01:28:16.599Z,3.17
2018-07-24T01:30:45.996Z,2.67
2018-07-24T01:33:15.253Z,3.13
2018-07-24T01:35:44.746Z,2.93
2018-07-24T01:38:14.501Z,2.90
2018-07-24T01:40:43.862Z,2.70
2018-07-24T01:43:13.258Z,2.77
2018-07-24T01:45:42.508Z,3.50
2018-07-24T01:48:11.915Z,3.30
2018-07-24T01:50:41.192Z,2.20
2018-07-24T01:53:10.498Z,2.07
2018-07-24T01:55:39.521Z,2.73
2018-07-24T01:58:08.892Z,2.17
2018-07-24T02:00:38.196Z,3.27
2018-07-24T02:03:07.546Z,3.60
2018-07-24T02:05:36.815Z,3.33
2018-07-24T02:08:06.166Z,3.37
2018-07-24T02:10:35.549Z,2.83
2018-07-24T02:13:04.857Z,3.27
2018-07-24T02:15:34.158Z,3.43
2018-07-24T02:18:03.502Z,3.10
2018-07-24T02:20:32.789Z,2.67
2018-07-24T02:23:02.103Z,3.47
2018-07-24T02:25:31.357Z,3.23
2018-07-24T02:28:00.640Z,2.50
2018-07-24T02:30:29.879Z,2.70
2018-07-24T02:32:59.199Z,3.17
2018-07-24T02:35:28.457Z,3.90
2018-07-24T02:37:57.778Z,2.33
2018-07-24T02:40:26.820Z,3.47
2018-07-24T02:42:56.276Z,3.50
2018-07-24T02:45:25.552Z,2.30
2018-07-24T02:47:54.836Z,3.57
2018-07-24T02:50:24.110Z,2.10
2018-07-24T02:52:53.425Z,2.90
2018-07-24T02:55:22.721Z,2.77
2018-07-24T02:57:52.501Z,3.33
2018-07-24T03:00:22.248Z,3.43
2018-07-24T03:02:51.747Z,2.50
2018-07-24T03:05:21.418Z,2.83
2018-07-24T03:07:50.870Z,2.57
2018-07-24T03:10:20.262Z,3.77
2018-07-24T03:12:49.558Z,3.10
2018-07-24T03:15:18.883Z,3.97
2018-07-24T03:17:48.212Z,2.83
2018-07-24T03:20:17.511Z,4.37
2018-07-24T03:22:46.779Z,3.63
2018-07-24T03:25:15.810Z,3.00
2018-07-24T03:27:45.125Z,3.13
2018-07-24T03:30:14.470Z,3.40
2018-07-24T03:32:43.827Z,2.77
2018-07-24T03:35:13.142Z,3.00
2018-07-24T03:37:42.431Z,3.50
2018-07-24T03:40:11.714Z,3.23
2018-07-24T03:42:40.993Z,3.70
2018-07-24T03:45:10.382Z,2.53
2018-07-24T03:47:39.735Z,2.80
2018-07-24T03:50:09.089Z,2.50
2018-07-24T03:52:38.364Z,2.73
2018-07-24T03:55:07.686Z,3.13
2018-07-24T03:57:37.050Z,2.30
2018-07-24T04:00:07.235Z,3.33
2018-07-24T04:02:36.538Z,3.17
2018-07-24T04:05:06.016Z,3.07
2018-07-24T04:07:35.358Z,3.90
2018-07-24T04:10:04.782Z,3.53
2018-07-24T04:12:34.102Z,3.23
2018-07-24T04:15:03.382Z,3.13
2018-07-24T04:17:32.666Z,3.73
2018-07-24T04:20:02.008Z,3.40
2018-07-24T04:22:31.279Z,3.73
2018-07-24T04:25:00.645Z,4.10
2018-07-24T04:27:29.937Z,4.17
2018-07-24T04:29:59.457Z,3.53
2018-07-24T04:32:28.534Z,2.57
2018-07-24T04:34:57.974Z,2.30
2018-07-24T04:37:27.399Z,4.47
2018-07-24T04:39:56.789Z,3.43
2018-07-24T04:42:26.033Z,3.00
2018-07-24T04:44:55.378Z,3.93
2018-07-24T04:47:24.398Z,3.43
2018-07-24T04:49:53.713Z,3.83
2018-07-24T04:52:23.070Z,3.73
2018-07-24T04:54:52.093Z,4.47
2018-07-24T04:57:21.380Z,3.57
2018-07-24T04:59:50.678Z,2.47
2018-07-24T05:02:19.918Z,3.43
2018-07-24T05:04:49.178Z,3.73
2018-07-24T05:07:18.439Z,4.07
2018-07-24T05:09:47.676Z,3.63
2018-07-24T05:12:16.921Z,4.37
2018-07-24T05:14:46.202Z,5.50
2018-07-24T05:17:15.503Z,5.97
2018-07-24T05:19:44.747Z,6.70
2018-07-24T05:22:14.009Z,6.83
2018-07-24T05:24:43.273Z,7.43
2018-07-24T05:27:12.718Z,6.80
2018-07-24T05:29:41.997Z,4.87
2018-07-24T05:32:11.458Z,5.57
2018-07-24T05:34:40.734Z,5.67
2018-07-24T05:37:09.992Z,5.43
2018-07-24T05:39:39.234Z,4.90
2018-07-24T05:42:08.604Z,4.93
2018-07-24T05:44:37.854Z,4.93
2018-07-24T05:47:07.183Z,5.13
2018-07-24T05:49:36.489Z,4.20
2018-07-24T05:52:05.840Z,5.13
2018-07-24T05:54:35.136Z,4.33
2018-07-24T05:57:04.518Z,4.17
2018-07-24T05:59:33.846Z,5.10
2018-07-24T06:02:03.304Z,4.67
2018-07-24T06:04:32.564Z,4.30
2018-07-24T06:07:02.945Z,4.97
2018-07-24T06:09:32.557Z,4.03
2018-07-24T06:12:01.915Z,4.58
2018-07-24T06:14:31.319Z,6.00
2018-07-24T06:17:00.741Z,4.35
2018-07-24T06:19:30.162Z,3.52
2018-07-24T06:21:59.386Z,4.78
2018-07-24T06:24:28.725Z,4.65
2018-07-24T06:26:58.093Z,4.58
2018-07-24T06:29:27.633Z,4.12
2018-07-24T06:31:56.760Z,4.12
2018-07-24T06:34:26.253Z,3.85
2018-07-24T06:36:55.597Z,4.17
2018-07-24T06:39:24.930Z,3.90
2018-07-24T06:41:54.249Z,4.15
2018-07-24T06:44:23.671Z,4.53
2018-07-24T06:46:53.006Z,4.65
2018-07-24T06:49:22.541Z,4.20
2018-07-24T06:51:52.076Z,3.95
2018-07-24T06:54:21.402Z,3.92
2018-07-24T06:56:50.742Z,4.50
2018-07-24T06:59:20.021Z,4.10
2018-07-24T07:01:49.401Z,4.33
2018-07-24T07:04:18.748Z,4.27
2018-07-24T07:06:48.182Z,4.10
2018-07-24T07:09:17.482Z,4.90
2018-07-24T07:11:46.804Z,3.97
2018-07-24T07:14:16.138Z,3.90
2018-07-24T07:16:45.407Z,3.90
2018-07-24T07:19:14.539Z,4.40
2018-07-24T07:21:44.594Z,4.90
2018-07-24T07:24:14.038Z,3.63
2018-07-24T07:26:43.911Z,3.37
2018-07-24T07:29:13.556Z,3.47
2018-07-24T07:31:43.156Z,4.80
2018-07-24T07:34:12.636Z,4.67
2018-07-24T07:36:42.001Z,3.80
2018-07-24T07:39:12.065Z,3.27
2018-07-24T07:41:41.774Z,4.40
2018-07-24T07:44:11.274Z,3.20
2018-07-24T07:46:40.335Z,3.70
2018-07-24T07:49:09.657Z,4.07
2018-07-24T07:51:38.994Z,4.63
2018-07-24T07:54:08.322Z,3.87
2018-07-24T07:56:37.666Z,3.47
2018-07-24T07:59:07.163Z,4.87
2018-07-24T08:01:37.340Z,3.37
2018-07-24T08:04:07.309Z,3.47
2018-07-24T08:06:36.673Z,3.60
2018-07-24T08:09:09.307Z,3.93
2018-07-24T08:11:38.576Z,3.47
2018-07-24T08:14:07.935Z,4.40
2018-07-24T08:16:37.211Z,3.73
2018-07-24T08:19:06.634Z,4.07
2018-07-24T08:21:35.875Z,4.10
2018-07-24T08:24:05.150Z,4.20
2018-07-24T08:26:34.392Z,3.00
2018-07-24T08:29:03.818Z,3.27
2018-07-24T08:31:36.410Z,3.20
2018-07-24T08:34:05.751Z,2.97
2018-07-24T08:36:34.807Z,3.83
2018-07-24T08:39:05.127Z,3.37
2018-07-24T08:41:34.447Z,2.90
2018-07-24T08:44:04.154Z,3.00
2018-07-24T08:46:33.472Z,2.70
2018-07-24T08:49:02.763Z,3.27
2018-07-24T08:51:32.373Z,3.13
2018-07-24T08:54:01.845Z,2.63
2018-07-24T08:56:31.076Z,3.00
2018-07-24T08:59:00.395Z,2.77
2018-07-24T09:01:29.788Z,2.27
2018-07-24T09:03:59.119Z,2.70
2018-07-24T09:06:28.428Z,3.35
2018-07-24T09:08:57.691Z,2.42
2018-07-24T09:11:26.994Z,2.98
2018-07-24T09:13:56.345Z,2.95
2018-07-24T09:16:25.618Z,2.75
2018-07-24T09:18:55.020Z,2.87
2018-07-24T09:21:24.300Z,2.37
2018-07-24T09:23:53.649Z,2.22
2018-07-24T09:26:23.281Z,3.00
2018-07-24T09:28:52.625Z,2.60
2018-07-24T09:31:22.365Z,2.02
2018-07-24T09:33:51.649Z,2.50
2018-07-24T09:36:20.985Z,2.45
2018-07-24T09:38:50.325Z,2.83
2018-07-24T09:41:19.676Z,1.92
2018-07-24T09:43:49.002Z,3.15
2018-07-24T09:46:18.354Z,2.62
2018-07-24T09:48:47.740Z,2.10
2018-07-24T09:51:17.055Z,2.35
2018-07-24T09:53:46.275Z,2.33
2018-07-24T09:56:15.353Z,2.47
2018-07-24T09:58:44.594Z,2.95
2018-07-24T10:01:19.191Z,2.77
2018-07-24T10:03:48.492Z,2.42
2018-07-24T10:06:17.802Z,1.92
2018-07-24T10:08:47.115Z,2.20
2018-07-24T10:11:16.477Z,2.47
2018-07-24T10:13:45.756Z,2.17
2018-07-24T10:16:15.075Z,2.70
2018-07-24T10:18:44.434Z,2.27
2018-07-24T10:21:13.553Z,2.95
2018-07-24T10:23:42.790Z,2.77
2018-07-24T10:26:12.103Z,2.27
2018-07-24T10:28:41.386Z,2.30
2018-07-24T10:31:10.555Z,2.47
2018-07-24T10:33:39.900Z,2.47
2018-07-24T10:36:09.168Z,2.17
2018-07-24T10:38:38.446Z,2.70
2018-07-24T10:41:07.857Z,2.30
2018-07-24T10:43:37.277Z,2.40
2018-07-24T10:46:06.673Z,2.83
2018-07-24T10:48:35.973Z,2.50
2018-07-24T10:51:05.294Z,2.22
2018-07-24T10:53:34.734Z,1.98
2018-07-24T10:56:04.086Z,2.37
2018-07-24T10:58:33.443Z,2.92
2018-07-24T11:01:02.867Z,2.27
2018-07-24T11:03:32.246Z,2.25
2018-07-24T11:06:01.720Z,2.22
2018-07-24T11:08:31.198Z,2.55
2018-07-24T11:11:00.664Z,2.92
2018-07-24T11:13:30.002Z,2.40
2018-07-24T11:15:59.613Z,2.22
2018-07-24T11:18:28.967Z,2.90
2018-07-24T11:20:58.359Z,2.37
2018-07-24T11:23:27.807Z,2.35
2018-07-24T11:25:57.129Z,2.30
2018-07-24T11:28:26.190Z,2.75
2018-07-24T11:30:55.281Z,2.15
2018-07-24T11:33:24.970Z,2.20
2018-07-24T11:35:54.396Z,2.62
2018-07-24T11:38:23.605Z,2.33
2018-07-24T11:40:52.975Z,3.15
2018-07-24T11:43:22.414Z,2.45
2018-07-24T11:45:51.752Z,2.27
2018-07-24T11:48:20.885Z,2.95
2018-07-24T11:50:50.214Z,2.70
2018-07-24T11:53:19.588Z,2.27
2018-07-24T11:55:48.949Z,2.10
2018-07-24T11:58:18.322Z,2.10
2018-07-24T12:00:47.659Z,2.60
2018-07-24T12:03:17.046Z,2.35
2018-07-24T12:05:46.447Z,2.15
2018-07-24T12:08:15.967Z,2.30
2018-07-24T12:10:45.395Z,2.37
2018-07-24T12:13:14.460Z,1.82
2018-07-24T12:15:43.774Z,3.00
2018-07-24T12:18:13.261Z,2.60
2018-07-24T12:20:42.601Z,2.17
2018-07-24T12:23:11.995Z,2.87
2018-07-24T12:25:41.396Z,2.47
2018-07-24T12:28:10.737Z,2.40
2018-07-24T12:30:40.216Z,3.10
2018-07-24T12:33:10.110Z,2.27
2018-07-24T12:35:39.829Z,2.22
2018-07-24T12:38:09.219Z,2.37
2018-07-24T12:40:38.708Z,2.58
2018-07-24T12:43:08.796Z,2.25
2018-07-24T12:45:38.237Z,2.50
2018-07-24T12:48:07.643Z,2.33
2018-07-24T12:50:36.742Z,2.20
2018-07-24T12:53:06.138Z,2.40
2018-07-24T12:55:35.604Z,2.47
2018-07-24T12:58:05.099Z,2.50
2018-07-24T13:00:34.422Z,2.65
2018-07-24T13:03:03.866Z,2.50
2018-07-24T13:05:33.249Z,2.45
2018-07-24T13:08:02.646Z,2.37
2018-07-24T13:10:31.944Z,2.12
2018-07-24T13:13:01.309Z,2.70
2018-07-24T13:15:30.635Z,2.20
2018-07-24T13:17:59.984Z,2.12
2018-07-24T13:20:29.326Z,2.25
2018-07-24T13:22:58.773Z,2.08
2018-07-24T13:25:28.111Z,1.72
2018-07-24T13:27:57.487Z,2.20
2018-07-24T13:30:26.560Z,1.98
2018-07-24T13:32:55.868Z,2.62
2018-07-24T13:35:25.296Z,2.22
2018-07-24T13:37:54.645Z,2.40
2018-07-24T13:40:24.055Z,3.15
2018-07-24T13:42:53.390Z,2.12
2018-07-24T13:45:22.750Z,2.05
2018-07-24T13:47:52.157Z,2.35
2018-07-24T13:50:21.524Z,2.52
2018-07-24T13:52:50.871Z,2.12
2018-07-24T13:55:20.281Z,2.22
2018-07-24T13:57:49.562Z,2.47
2018-07-24T14:00:18.887Z,2.33
2018-07-24T14:02:48.151Z,2.40
2018-07-24T14:05:17.422Z,2.10
2018-07-24T14:07:46.725Z,2.52
2018-07-24T14:10:16.024Z,2.67
2018-07-24T14:12:45.830Z,2.25
2018-07-24T14:15:15.139Z,2.27
2018-07-24T14:17:44.418Z,2.50
2018-07-24T14:20:13.878Z,2.37
2018-07-24T14:22:43.175Z,2.98
2018-07-24T14:25:12.434Z,1.92
2018-07-24T14:27:41.771Z,2.12
2018-07-24T14:30:11.201Z,2.17
2018-07-24T14:32:40.478Z,2.33
2018-07-24T14:35:09.746Z,2.47
2018-07-24T14:37:39.062Z,2.50
2018-07-24T14:40:08.334Z,2.20
2018-07-24T14:42:38.196Z,2.15
2018-07-24T14:45:07.658Z,2.20
2018-07-24T14:47:36.910Z,2.42
2018-07-24T14:50:06.235Z,2.12
2018-07-24T14:52:35.563Z,1.90
2018-07-24T14:55:04.969Z,2.20
2018-07-24T14:57:34.205Z,1.62
2018-07-24T15:00:03.694Z,3.10
2018-07-24T15:02:33.010Z,2.40
2018-07-24T15:05:02.314Z,1.72
2018-07-24T15:07:31.586Z,2.40
2018-07-24T15:10:01.015Z,2.10
2018-07-24T15:12:30.302Z,2.22
2018-07-24T15:14:59.369Z,2.40
2018-07-24T15:17:28.657Z,2.70
2018-07-24T15:19:57.992Z,2.15
2018-07-24T15:22:27.317Z,2.05
2018-07-24T15:24:56.742Z,1.57
2018-07-24T15:27:26.324Z,2.40
2018-07-24T15:29:55.667Z,1.90
2018-07-24T15:32:25.090Z,1.92
2018-07-24T15:34:54.639Z,1.50
2018-07-24T15:37:24.091Z,2.10
2018-07-24T15:39:53.638Z,1.70
2018-07-24T15:42:23.525Z,2.02
2018-07-24T15:44:53.055Z,1.80
2018-07-24T15:47:22.370Z,1.70
2018-07-24T15:49:52.007Z,1.82
2018-07-24T15:52:21.369Z,2.35
2018-07-24T15:54:50.730Z,2.00
2018-07-24T15:57:20.145Z,2.40
2018-07-24T15:59:49.434Z,1.72
2018-07-24T16:02:18.723Z,2.12
2018-07-24T16:04:47.959Z,2.37
2018-07-24T16:07:17.230Z,2.22
2018-07-24T16:09:46.485Z,2.15
2018-07-24T16:12:15.796Z,2.60
2018-07-24T16:14:45.041Z,1.98
2018-07-24T16:17:14.453Z,2.67
2018-07-24T16:19:44.153Z,2.22
2018-07-24T16:22:14.209Z,1.62
2018-07-24T16:24:43.567Z,2.10
2018-07-24T16:27:12.876Z,2.40
2018-07-24T16:29:42.197Z,1.57
2018-07-24T16:32:11.991Z,1.95
2018-07-24T16:34:41.290Z,1.82
2018-07-24T16:37:10.611Z,2.22
2018-07-24T16:39:39.942Z,2.10
2018-07-24T16:42:09.329Z,2.17
2018-07-24T16:44:38.583Z,2.33
2018-07-24T16:47:07.970Z,1.75
2018-07-24T16:49:37.207Z,1.82
2018-07-24T16:52:06.612Z,1.70
2018-07-24T16:54:35.946Z,2.42
2018-07-24T16:57:05.359Z,2.10
2018-07-24T16:59:34.770Z,1.98
2018-07-24T17:02:04.066Z,2.50
2018-07-24T17:04:33.422Z,2.22
2018-07-24T17:07:02.690Z,1.70
2018-07-24T17:09:32.047Z,2.15
2018-07-24T17:12:19.366Z,2.08
2018-07-24T17:14:48.610Z,1.82
2018-07-24T17:17:19.413Z,1.85
2018-07-24T17:19:50.698Z,2.17
2018-07-24T17:22:22.417Z,1.85
2018-07-24T17:24:51.752Z,1.98
2018-07-24T17:27:28.899Z,1.80
2018-07-24T17:30:12.306Z,1.98
2018-07-24T17:32:43.912Z,1.90
2018-07-24T17:35:16.317Z,1.98
2018-07-24T17:37:48.197Z,2.40
2018-07-24T17:40:24.208Z,2.40
2018-07-24T17:42:58.242Z,1.50
2018-07-24T17:45:29.463Z,2.00
2018-07-24T17:48:00.288Z,2.35
2018-07-24T17:50:29.582Z,2.80
2018-07-24T17:52:58.696Z,2.10
2018-07-24T17:55:27.965Z,2.37
2018-07-24T17:57:57.282Z,2.30
2018-07-24T18:00:26.693Z,2.15
2018-07-24T18:02:55.981Z,2.47
2018-07-24T18:05:25.294Z,2.00
2018-07-24T18:07:54.591Z,2.22
2018-07-24T18:10:23.858Z,2.00
2018-07-24T18:12:53.244Z,1.67
2018-07-24T18:15:22.644Z,1.80
2018-07-24T18:17:51.890Z,2.12
2018-07-24T18:20:21.130Z,1.50
2018-07-24T18:22:50.379Z,2.17
2018-07-24T18:25:19.613Z,1.90
2018-07-24T18:27:48.944Z,2.02
2018-07-24T18:30:18.183Z,2.27
2018-07-24T18:32:47.202Z,1.97
2018-07-24T18:35:16.539Z,2.08
2018-07-24T18:37:45.876Z,2.35
2018-07-24T18:40:15.250Z,2.27
2018-07-24T18:42:44.522Z,2.70
2018-07-24T18:45:13.831Z,2.15
2018-07-24T18:47:43.966Z,1.87
2018-07-24T18:50:13.326Z,2.02
2018-07-24T18:52:42.598Z,3.07
2018-07-24T18:55:12.112Z,2.40
2018-07-24T18:57:41.511Z,2.27
2018-07-24T19:00:10.877Z,2.13
2018-07-24T19:02:40.298Z,3.07
2018-07-24T19:05:09.723Z,2.40
2018-07-24T19:07:38.727Z,2.70
2018-07-24T19:10:08.123Z,2.27
2018-07-24T19:12:37.522Z,2.50
2018-07-24T19:15:07.776Z,2.03
2018-07-24T19:17:37.242Z,2.20
2018-07-24T19:20:06.529Z,2.47
2018-07-24T19:22:35.878Z,1.57
2018-07-24T19:25:05.325Z,2.43
2018-07-24T19:27:34.333Z,2.27
2018-07-24T19:30:03.389Z,2.10
2018-07-24T19:32:32.755Z,1.83
2018-07-24T19:35:01.941Z,1.93
2018-07-24T19:37:31.272Z,2.27
2018-07-24T19:40:00.642Z,2.10
2018-07-24T19:42:29.894Z,1.87
2018-07-24T19:44:59.248Z,2.53
2018-07-24T19:47:28.561Z,2.17
2018-07-24T19:49:57.969Z,2.13
2018-07-24T19:52:27.254Z,2.23
2018-07-24T19:54:56.815Z,2.40
2018-07-24T19:57:26.071Z,2.17
2018-07-24T19:59:55.407Z,2.50
2018-07-24T20:02:24.740Z,2.53
2018-07-24T20:04:53.998Z,2.10
2018-07-24T20:07:23.297Z,2.73
2018-07-24T20:09:52.869Z,2.37
2018-07-24T20:12:22.149Z,2.93
2018-07-24T20:14:51.427Z,1.70
2018-07-24T20:17:20.737Z,2.50
2018-07-24T20:19:50.073Z,2.10
2018-07-24T20:22:19.431Z,2.00
2018-07-24T20:24:48.910Z,2.17
2018-07-24T20:27:18.285Z,2.13
2018-07-24T20:29:47.655Z,2.00
2018-07-24T20:32:17.018Z,2.33
2018-07-24T20:34:46.279Z,2.63
2018-07-24T20:37:15.596Z,2.23
2018-07-24T20:39:44.956Z,2.60
2018-07-24T20:42:14.262Z,2.60
2018-07-24T20:44:43.293Z,2.10
2018-07-24T20:47:12.924Z,3.00
2018-07-24T20:49:42.196Z,2.53
2018-07-24T20:52:12.046Z,2.97
2018-07-24T20:54:41.299Z,2.53
2018-07-24T20:57:10.670Z,2.40
2018-07-24T20:59:39.864Z,2.77
2018-07-24T21:02:09.233Z,2.70
2018-07-24T21:05:34.746Z,2.20
2018-07-24T21:11:15.529Z,2.87
2018-07-24T21:13:45.002Z,2.30
2018-07-24T21:16:14.386Z,2.53
2018-07-24T21:18:43.714Z,2.40
2018-07-24T21:21:13.022Z,2.23
2018-07-24T21:23:42.467Z,2.40
2018-07-24T21:26:11.771Z,2.57
2018-07-24T21:28:41.329Z,2.63
2018-07-24T21:31:10.647Z,2.17
2018-07-24T21:33:40.034Z,2.20
2018-07-24T21:36:09.310Z,2.33
2018-07-24T21:38:38.830Z,2.70
2018-07-24T21:41:08.257Z,1.97
2018-07-24T21:43:37.532Z,2.00
2018-07-24T21:46:06.837Z,2.50
2018-07-24T21:48:36.146Z,1.47
2018-07-24T21:51:05.460Z,2.53
2018-07-24T21:53:34.591Z,1.67
2018-07-24T21:56:03.891Z,1.97
2018-07-24T21:58:33.066Z,2.57
2018-07-24T22:01:07.708Z,2.27
2018-07-24T22:03:37.144Z,2.10
2018-07-24T22:06:06.498Z,1.80
2018-07-24T22:08:35.937Z,1.70
2018-07-24T22:11:05.358Z,1.67
2018-07-24T22:13:35.278Z,1.87
2018-07-24T22:16:04.581Z,2.60
2018-07-24T22:18:34.016Z,1.97
2018-07-24T22:21:03.453Z,1.80
2018-07-24T22:23:32.664Z,2.13
2018-07-24T22:26:02.046Z,1.77
2018-07-24T22:28:31.498Z,2.07
2018-07-24T22:31:00.862Z,1.77
2018-07-24T22:33:30.279Z,2.20
2018-07-24T22:35:59.860Z,2.03
2018-07-24T22:38:29.185Z,1.93
2018-07-24T22:40:58.567Z,2.20
2018-07-24T22:43:28.024Z,2.07
2018-07-24T22:45:57.377Z,2.23
2018-07-24T22:48:26.669Z,2.00
2018-07-24T22:50:55.962Z,2.00
2018-07-24T22:53:25.440Z,2.70
2018-07-24T22:55:54.873Z,1.60
2018-07-24T22:58:24.200Z,1.80
2018-07-24T23:00:53.578Z,2.03
2018-07-24T23:03:23.024Z,1.47
2018-07-24T23:05:52.245Z,2.00
2018-07-24T23:08:21.552Z,1.80
2018-07-24T23:10:50.892Z,2.27
2018-07-24T23:13:20.171Z,1.80
2018-07-24T23:15:49.612Z,1.97
2018-07-24T23:18:19.042Z,1.77
2018-07-24T23:20:48.341Z,2.17
2018-07-24T23:23:17.931Z,1.80
2018-07-24T23:25:47.274Z,1.33
2018-07-24T23:28:16.545Z,2.37
2018-07-24T23:30:45.914Z,1.80
2018-07-24T23:33:15.200Z,2.70
2018-07-24T23:35:44.517Z,1.47
2018-07-24T23:38:13.598Z,2.37
2018-07-24T23:40:42.918Z,1.67
2018-07-24T23:43:12.151Z,1.97
2018-07-24T23:45:41.859Z,2.73
2018-07-24T23:48:11.139Z,2.23
2018-07-24T23:50:40.398Z,2.00
2018-07-24T23:53:09.381Z,1.73
2018-07-24T23:55:38.619Z,1.97
2018-07-24T23:58:08.008Z,2.13
